createdAt,value
2023-08-14T00:01:57.096Z,101697.09
2023-08-14T00:04:23.596Z,101704.13
2023-08-14T00:06:50.082Z,101699.97
2023-08-14T00:09:16.680Z,101694.91
2023-08-14T00:11:43.222Z,101688.06
2023-08-14T00:14:09.750Z,101691.53
2023-08-14T00:16:36.298Z,101690.78
2023-08-14T00:19:02.979Z,101689.28
2023-08-14T00:21:29.776Z,101691.16
2023-08-14T00:23:56.247Z,101689.63
2023-08-14T00:26:22.713Z,101685.91
2023-08-14T00:28:49.207Z,101690.13
2023-08-14T00:31:17.914Z,101685.81
2023-08-14T00:33:44.367Z,101686.72
2023-08-14T00:36:10.803Z,101681.53
2023-08-14T00:38:37.221Z,101673.84
2023-08-14T00:41:03.846Z,101675.56
2023-08-14T00:43:30.411Z,101670.44
2023-08-14T00:45:57.479Z,101673.91
2023-08-14T00:48:26.140Z,101672.28
2023-08-14T00:50:54.758Z,101673.25
2023-08-14T00:53:21.693Z,101674.28
2023-08-14T00:55:48.654Z,101671.06
2023-08-14T00:58:16.240Z,101669.34
2023-08-14T01:00:44.163Z,101668.53
2023-08-14T01:03:11.314Z,101674.53
2023-08-14T01:05:38.006Z,101666.78
2023-08-14T01:08:04.695Z,101666.00
2023-08-14T01:11:00.053Z,101674.72
2023-08-14T01:13:47.675Z,101663.53
2023-08-14T01:16:20.730Z,101660.09
2023-08-14T01:18:48.671Z,101666.19
2023-08-14T01:21:18.223Z,101671.44
2023-08-14T01:24:07.804Z,101664.50
2023-08-14T01:26:35.590Z,101658.53
2023-08-14T01:29:04.374Z,101663.84
2023-08-14T01:31:31.351Z,101656.16
2023-08-14T01:33:58.650Z,101660.50
2023-08-14T01:36:33.760Z,101654.34
2023-08-14T01:39:09.585Z,101658.53
2023-08-14T01:42:19.079Z,101657.00
2023-08-14T01:44:49.747Z,101652.00
2023-08-14T01:47:19.631Z,101645.22
2023-08-14T01:49:47.023Z,101648.66
2023-08-14T01:52:13.730Z,101646.25
2023-08-14T01:54:40.321Z,101642.09
2023-08-14T01:57:06.867Z,101634.50
2023-08-14T01:59:48.264Z,101625.19
2023-08-14T02:02:15.304Z,101632.94
2023-08-14T02:04:41.962Z,101623.69
2023-08-14T02:07:10.824Z,101623.09
2023-08-14T02:09:37.989Z,101614.59
2023-08-14T02:12:04.919Z,101613.84
2023-08-14T02:14:31.886Z,101609.56
2023-08-14T02:16:58.468Z,101605.34
2023-08-14T02:19:24.981Z,101609.69
2023-08-14T02:21:51.461Z,101610.72
2023-08-14T02:24:17.921Z,101609.88
2023-08-14T02:26:44.394Z,101598.81
2023-08-14T02:29:10.860Z,101601.50
2023-08-14T02:31:37.457Z,101605.97
2023-08-14T02:34:04.634Z,101598.34
2023-08-14T02:36:31.078Z,101596.84
2023-08-14T02:38:57.591Z,101603.03
2023-08-14T02:41:24.085Z,101598.75
2023-08-14T02:43:50.603Z,101593.72
2023-08-14T02:46:17.313Z,101598.94
2023-08-14T02:48:46.289Z,101590.41
2023-08-14T02:51:12.838Z,101592.19
2023-08-14T02:53:39.266Z,101592.25
2023-08-14T02:56:05.760Z,101592.38
2023-08-14T02:58:32.680Z,101595.09
2023-08-14T03:00:59.268Z,101603.78
2023-08-14T03:03:25.873Z,101607.22
2023-08-14T03:05:52.486Z,101599.59
2023-08-14T03:08:18.952Z,101603.16
2023-08-14T03:10:45.416Z,101604.94
2023-08-14T03:13:11.886Z,101596.41
2023-08-14T03:15:38.410Z,101599.06
2023-08-14T03:18:04.996Z,101603.41
2023-08-14T03:20:31.539Z,101595.72
2023-08-14T03:22:58.081Z,101595.00
2023-08-14T03:25:24.668Z,101606.25
2023-08-14T03:27:51.171Z,101608.06
2023-08-14T03:30:17.764Z,101600.41
2023-08-14T03:32:44.342Z,101601.44
2023-08-14T03:35:11.109Z,101592.88
2023-08-14T03:37:37.655Z,101599.84
2023-08-14T03:40:04.512Z,101601.66
2023-08-14T03:42:31.009Z,101611.25
2023-08-14T03:44:57.494Z,101607.03
2023-08-14T03:47:23.941Z,101603.63
2023-08-14T03:49:50.508Z,101603.56
2023-08-14T03:52:18.783Z,101605.38
2023-08-14T03:54:45.472Z,101606.25
2023-08-14T03:57:11.958Z,101610.59
2023-08-14T03:59:38.503Z,101608.16
2023-08-14T04:02:05.142Z,101609.91
2023-08-14T04:04:31.624Z,101603.06
2023-08-14T04:06:58.993Z,101601.41
2023-08-14T04:09:25.603Z,101607.34
2023-08-14T04:11:52.079Z,101612.47
2023-08-14T04:14:18.537Z,101605.63
2023-08-14T04:16:45.565Z,101604.75
2023-08-14T04:19:15.812Z,101602.97
2023-08-14T04:21:43.406Z,101601.31
2023-08-14T04:24:10.583Z,101597.75
2023-08-14T04:26:40.539Z,101596.88
2023-08-14T04:29:08.652Z,101593.41
2023-08-14T04:31:39.535Z,101592.50
2023-08-14T04:34:06.639Z,101594.13
2023-08-14T04:36:35.063Z,101588.06
2023-08-14T04:39:02.455Z,101588.84
2023-08-14T04:41:29.108Z,101593.09
2023-08-14T04:43:55.916Z,101599.84
2023-08-14T04:46:41.148Z,101588.56
2023-08-14T04:49:15.880Z,101575.47
2023-08-14T04:51:42.280Z,101575.34
2023-08-14T04:54:08.921Z,101569.25
2023-08-14T04:56:35.663Z,101576.06
2023-08-14T04:59:02.151Z,101580.16
2023-08-14T05:01:28.730Z,101575.81
2023-08-14T05:03:55.266Z,101574.06
2023-08-14T05:06:21.794Z,101579.91
2023-08-14T05:08:48.578Z,101571.97
2023-08-14T05:11:15.146Z,101575.13
2023-08-14T05:13:45.373Z,101578.38
2023-08-14T05:16:12.010Z,101570.31
2023-08-14T05:18:38.708Z,101576.22
2023-08-14T05:21:05.451Z,101567.44
2023-08-14T05:23:31.901Z,101572.25
2023-08-14T05:25:58.416Z,101570.13
2023-08-14T05:28:24.980Z,101570.66
2023-08-14T05:30:51.477Z,101574.41
2023-08-14T05:33:18.041Z,101562.06
2023-08-14T05:35:44.543Z,101565.38
2023-08-14T05:38:11.064Z,101568.63
2023-08-14T05:40:37.587Z,101565.78
2023-08-14T05:43:07.993Z,101568.16
2023-08-14T05:45:44.001Z,101566.28
2023-08-14T05:48:11.610Z,101557.50
2023-08-14T05:50:38.708Z,101553.00
2023-08-14T05:53:06.111Z,101562.25
2023-08-14T05:55:37.604Z,101568.94
2023-08-14T05:58:04.538Z,101575.53
2023-08-14T06:00:31.565Z,101570.75
2023-08-14T06:02:58.415Z,101574.88
2023-08-14T06:05:25.401Z,101576.38
2023-08-14T06:07:53.673Z,101577.09
2023-08-14T06:10:20.984Z,101581.91
2023-08-14T06:12:50.134Z,101587.53
2023-08-14T06:15:18.900Z,101582.34
2023-08-14T06:17:45.537Z,101587.47
2023-08-14T06:20:12.605Z,101580.50
2023-08-14T06:22:45.011Z,101584.00
2023-08-14T06:25:15.318Z,101582.66
2023-08-14T06:27:42.440Z,101588.13
2023-08-14T06:30:11.930Z,101593.56
2023-08-14T06:32:39.333Z,101597.97
2023-08-14T06:35:07.196Z,101603.59
2023-08-14T06:37:34.012Z,101602.78
2023-08-14T06:40:00.571Z,101599.06
2023-08-14T06:42:27.185Z,101600.72
2023-08-14T06:44:53.733Z,101596.44
2023-08-14T06:47:20.327Z,101595.63
2023-08-14T06:49:46.827Z,101598.03
2023-08-14T06:52:14.840Z,101591.44
2023-08-14T06:54:41.457Z,101590.44
2023-08-14T06:57:09.103Z,101592.22
2023-08-14T06:59:36.205Z,101585.34
2023-08-14T07:02:02.926Z,101574.94
2023-08-14T07:04:29.532Z,101570.72
2023-08-14T07:06:56.087Z,101578.28
2023-08-14T07:09:22.974Z,101581.63
2023-08-14T07:11:49.925Z,101576.25
2023-08-14T07:14:16.477Z,101582.53
2023-08-14T07:16:43.200Z,101580.59
2023-08-14T07:19:09.990Z,101582.34
2023-08-14T07:21:36.586Z,101590.16
2023-08-14T07:24:03.434Z,101586.00
2023-08-14T07:26:30.402Z,101593.06
2023-08-14T07:28:56.884Z,101588.22
2023-08-14T07:31:24.041Z,101600.03
2023-08-14T07:33:50.585Z,101590.81
2023-08-14T07:36:17.214Z,101590.19
2023-08-14T07:38:43.746Z,101583.91
2023-08-14T07:41:10.322Z,101590.84
2023-08-14T07:43:36.763Z,101583.00
2023-08-14T07:46:03.231Z,101579.34
2023-08-14T07:48:29.788Z,101579.38
2023-08-14T07:50:56.294Z,101590.59
2023-08-14T07:53:22.915Z,101597.72
2023-08-14T07:55:49.966Z,101598.75
2023-08-14T07:58:17.421Z,101600.34
2023-08-14T08:00:44.662Z,101599.16
2023-08-14T08:03:11.218Z,101604.03
2023-08-14T08:05:38.291Z,101597.63
2023-08-14T08:08:05.694Z,101609.78
2023-08-14T08:10:32.544Z,101596.97
2023-08-14T08:12:59.056Z,101593.47
2023-08-14T08:15:25.679Z,101593.97
2023-08-14T08:17:52.370Z,101605.50
2023-08-14T08:20:19.332Z,101581.47
2023-08-14T08:22:45.906Z,101566.59
2023-08-14T08:25:12.526Z,101564.81
2023-08-14T08:27:39.152Z,101559.84
2023-08-14T08:30:06.237Z,101558.53
2023-08-14T08:32:32.850Z,101563.19
2023-08-14T08:34:59.569Z,101552.09
2023-08-14T08:37:26.179Z,101566.03
2023-08-14T08:39:53.859Z,101569.44
2023-08-14T08:42:21.244Z,101569.50
2023-08-14T08:44:50.797Z,101566.75
2023-08-14T08:47:22.747Z,101563.88
2023-08-14T08:49:49.688Z,101559.69
2023-08-14T08:52:16.799Z,101553.09
2023-08-14T08:54:43.738Z,101559.03
2023-08-14T08:57:10.307Z,101549.25
2023-08-14T08:59:39.432Z,101548.69
2023-08-14T09:02:05.957Z,101544.84
2023-08-14T09:04:32.576Z,101548.53
2023-08-14T09:06:59.094Z,101553.66
2023-08-14T09:09:25.671Z,101550.03
2023-08-14T09:11:52.237Z,101547.09
2023-08-14T09:14:18.978Z,101544.09
2023-08-14T09:16:45.822Z,101532.06
2023-08-14T09:19:16.034Z,101536.75
2023-08-14T09:21:44.881Z,101533.69
2023-08-14T09:24:13.754Z,101545.97
2023-08-14T09:26:43.805Z,101546.91
2023-08-14T09:29:13.057Z,101558.94
2023-08-14T09:31:44.473Z,101557.97
2023-08-14T09:34:17.902Z,101558.53
2023-08-14T09:36:44.837Z,101558.41
2023-08-14T09:39:11.733Z,101569.34
2023-08-14T09:41:38.229Z,101568.09
2023-08-14T09:44:05.108Z,101556.06
2023-08-14T09:46:32.492Z,101556.75
2023-08-14T09:48:59.144Z,101554.28
2023-08-14T09:51:25.703Z,101544.22
2023-08-14T09:53:57.575Z,101547.19
2023-08-14T09:56:25.184Z,101540.75
2023-08-14T09:58:53.838Z,101539.16
2023-08-14T10:01:22.232Z,101521.34
2023-08-14T10:03:53.739Z,101531.16
2023-08-14T10:06:25.706Z,101520.19
2023-08-14T10:08:56.730Z,101521.13
2023-08-14T10:11:27.506Z,101519.25
2023-08-14T10:13:58.343Z,101517.56
2023-08-14T10:16:28.838Z,101506.50
2023-08-14T10:18:57.410Z,101501.03
2023-08-14T10:21:31.269Z,101500.44
2023-08-14T10:24:00.464Z,101505.06
2023-08-14T10:26:28.197Z,101497.88
2023-08-14T10:28:57.217Z,101500.44
2023-08-14T10:31:24.231Z,101499.94
2023-08-14T10:33:51.249Z,101499.38
2023-08-14T10:36:21.924Z,101497.13
2023-08-14T10:41:22.884Z,101509.47
2023-08-14T10:43:51.747Z,101494.91
2023-08-14T10:46:18.735Z,101489.03
2023-08-14T10:48:49.740Z,101498.69
2023-08-14T10:51:21.732Z,101491.91
2023-08-14T10:53:48.654Z,101485.78
2023-08-14T10:56:15.277Z,101480.81
2023-08-14T10:58:48.933Z,101480.53
2023-08-14T11:01:16.123Z,101480.28
2023-08-14T11:03:55.892Z,101486.47
2023-08-14T11:07:00.929Z,101474.00
2023-08-14T11:09:32.152Z,101472.34
2023-08-14T11:12:02.985Z,101474.69
2023-08-14T11:14:29.491Z,101467.09
2023-08-14T11:16:57.191Z,101462.44
2023-08-14T11:19:23.737Z,101463.34
2023-08-14T11:21:50.425Z,101468.16
2023-08-14T11:24:17.399Z,101471.41
2023-08-14T11:26:43.872Z,101468.59
2023-08-14T11:29:10.357Z,101463.00
2023-08-14T11:31:42.068Z,101469.50
2023-08-14T11:34:15.666Z,101463.63
2023-08-14T11:37:06.416Z,101464.22
2023-08-14T11:39:34.677Z,101473.66
2023-08-14T11:42:03.088Z,101473.03
2023-08-14T11:44:29.705Z,101472.53
2023-08-14T11:46:57.538Z,101466.66
2023-08-14T11:49:25.360Z,101470.84
2023-08-14T11:51:53.299Z,101475.63
2023-08-14T11:54:20.157Z,101463.78
2023-08-14T11:56:48.622Z,101467.41
2023-08-14T11:59:16.946Z,101473.09
2023-08-14T12:01:43.530Z,101477.16
2023-08-14T12:04:11.393Z,101466.00
2023-08-14T12:06:37.949Z,101463.84
2023-08-14T12:09:09.011Z,101455.03
2023-08-14T12:11:38.158Z,101459.31
2023-08-14T12:14:06.475Z,101454.13
2023-08-14T12:16:33.100Z,101456.94
2023-08-14T12:18:59.644Z,101462.78
2023-08-14T12:21:30.005Z,101457.13
2023-08-14T12:23:56.550Z,101456.59
2023-08-14T12:26:23.666Z,101456.09
2023-08-14T12:28:50.396Z,101448.16
2023-08-14T12:31:16.951Z,101442.66
2023-08-14T12:33:45.196Z,101453.72
2023-08-14T12:36:13.632Z,101454.78
2023-08-14T12:38:40.138Z,101450.03
2023-08-14T12:41:06.860Z,101442.78
2023-08-14T12:43:40.371Z,101441.28
2023-08-14T12:46:10.634Z,101436.72
2023-08-14T12:48:37.534Z,101437.97
2023-08-14T12:51:04.808Z,101453.13
2023-08-14T12:53:31.429Z,101446.84
2023-08-14T12:56:03.573Z,101449.59
2023-08-14T12:58:31.106Z,101438.19
2023-08-14T13:01:03.814Z,101438.53
2023-08-14T13:03:36.526Z,101448.97
2023-08-14T13:06:05.442Z,101444.00
2023-08-14T13:08:32.105Z,101440.19
2023-08-14T13:10:58.643Z,101441.13
2023-08-14T13:13:28.130Z,101424.97
2023-08-14T13:15:55.582Z,101423.66
2023-08-14T13:18:22.805Z,101421.72
2023-08-14T13:20:49.717Z,101421.72
2023-08-14T13:23:17.002Z,101413.66
2023-08-14T13:25:43.736Z,101414.34
2023-08-14T13:28:10.453Z,101409.06
2023-08-14T13:30:37.238Z,101403.97
2023-08-14T13:33:04.249Z,101389.53
2023-08-14T13:35:31.432Z,101387.16
2023-08-14T13:37:59.402Z,101391.19
2023-08-14T13:40:25.891Z,101387.75
2023-08-14T13:42:52.533Z,101386.84
2023-08-14T13:45:19.472Z,101378.09
2023-08-14T13:47:53.859Z,101377.97
2023-08-14T13:50:32.477Z,101377.38
2023-08-14T13:53:04.055Z,101371.66
2023-08-14T13:55:34.170Z,101374.66
2023-08-14T13:58:01.625Z,101360.56
2023-08-14T14:00:30.349Z,101367.31
2023-08-14T14:02:58.860Z,101353.56
2023-08-14T14:05:25.958Z,101359.28
2023-08-14T14:07:55.810Z,101355.59
2023-08-14T14:10:24.984Z,101353.88
2023-08-14T14:15:21.754Z,101344.75
2023-08-14T14:17:48.600Z,101335.78
2023-08-14T14:20:16.825Z,101339.81
2023-08-14T14:22:43.692Z,101338.09
2023-08-14T14:25:10.938Z,101342.69
2023-08-14T14:27:38.630Z,101343.34
2023-08-14T14:30:05.915Z,101341.41
2023-08-14T14:32:32.366Z,101335.97
2023-08-14T14:34:58.979Z,101337.25
2023-08-14T14:37:25.479Z,101341.91
2023-08-14T14:39:51.902Z,101338.16
2023-08-14T14:42:19.984Z,101339.28
2023-08-14T14:44:48.146Z,101340.56
2023-08-14T14:47:15.051Z,101345.75
2023-08-14T14:49:41.577Z,101330.50
2023-08-14T14:52:08.072Z,101328.69
2023-08-14T14:54:34.576Z,101324.03
2023-08-14T14:57:01.021Z,101325.81
2023-08-14T14:59:27.516Z,101325.91
2023-08-14T15:01:53.989Z,101320.72
2023-08-14T15:04:20.442Z,101318.25
2023-08-14T15:06:46.919Z,101312.75
2023-08-14T15:09:13.621Z,101321.19
2023-08-14T15:11:40.135Z,101328.22
2023-08-14T15:14:06.570Z,101322.97
2023-08-14T15:16:33.737Z,101322.53
2023-08-14T15:19:00.463Z,101323.47
2023-08-14T15:21:26.937Z,101310.50
2023-08-14T15:23:53.469Z,101306.38
2023-08-14T15:26:20.645Z,101310.59
2023-08-14T15:28:47.103Z,101312.44
2023-08-14T15:31:13.721Z,101312.47
2023-08-14T15:33:40.319Z,101306.84
2023-08-14T15:36:06.794Z,101311.78
2023-08-14T15:38:33.296Z,101309.25
2023-08-14T15:40:59.860Z,101312.63
2023-08-14T15:43:26.843Z,101314.91
2023-08-14T15:46:04.301Z,101315.44
2023-08-14T15:48:31.062Z,101308.06
2023-08-14T15:50:57.587Z,101316.44
2023-08-14T15:53:24.069Z,101312.59
2023-08-14T15:55:50.717Z,101299.31
2023-08-14T15:58:17.572Z,101311.75
2023-08-14T16:00:45.156Z,101319.41
2023-08-14T16:03:12.275Z,101312.78
2023-08-14T16:05:39.266Z,101314.59
2023-08-14T16:08:06.540Z,101318.91
2023-08-14T16:10:33.025Z,101316.44
2023-08-14T16:12:59.570Z,101321.72
2023-08-14T16:15:26.076Z,101316.91
2023-08-14T16:17:52.651Z,101316.06
2023-08-14T16:20:19.174Z,101318.81
2023-08-14T16:22:45.686Z,101323.84
2023-08-14T16:25:12.231Z,101319.09
2023-08-14T16:27:38.749Z,101315.50
2023-08-14T16:30:05.746Z,101311.56
2023-08-14T16:32:32.335Z,101326.97
2023-08-14T16:34:59.343Z,101328.50
2023-08-14T16:37:25.928Z,101330.00
2023-08-14T16:39:52.415Z,101326.19
2023-08-14T16:42:18.992Z,101325.69
2023-08-14T16:44:45.562Z,101322.94
2023-08-14T16:47:11.989Z,101331.84
2023-08-14T16:49:38.436Z,101318.09
2023-08-14T16:52:05.221Z,101318.41
2023-08-14T16:54:31.629Z,101323.53
2023-08-14T16:56:58.121Z,101317.41
2023-08-14T16:59:24.624Z,101317.38
2023-08-14T17:01:51.127Z,101315.75
2023-08-14T17:04:17.683Z,101326.81
2023-08-14T17:06:44.251Z,101312.50
2023-08-14T17:09:14.952Z,101307.94
2023-08-14T17:11:41.959Z,101309.38
2023-08-14T17:14:08.537Z,101323.22
2023-08-14T17:16:35.168Z,101318.31
2023-08-14T17:19:01.782Z,101314.91
2023-08-14T17:21:28.224Z,101313.72
2023-08-14T17:23:54.697Z,101311.63
2023-08-14T17:26:21.147Z,101314.38
2023-08-14T17:28:47.619Z,101322.41
2023-08-14T17:31:15.813Z,101323.50
2023-08-14T17:33:42.284Z,101322.28
2023-08-14T17:36:08.821Z,101322.94
2023-08-14T17:38:35.292Z,101323.53
2023-08-14T17:41:01.940Z,101314.63
2023-08-14T17:43:28.487Z,101312.94
2023-08-14T17:45:56.270Z,101307.31
2023-08-14T17:48:22.729Z,101313.84
2023-08-14T17:50:51.736Z,101312.28
2023-08-14T17:53:19.086Z,101305.00
2023-08-14T17:55:45.568Z,101312.59
2023-08-14T17:58:12.174Z,101306.91
2023-08-14T18:00:38.665Z,101303.22
2023-08-14T18:03:05.504Z,101299.69
2023-08-14T18:05:32.048Z,101308.09
2023-08-14T18:07:58.482Z,101302.31
2023-08-14T18:10:24.941Z,101298.41
2023-08-14T18:12:51.331Z,101300.53
2023-08-14T18:15:18.860Z,101303.19
2023-08-14T18:17:45.344Z,101304.41
2023-08-14T18:20:12.003Z,101305.97
2023-08-14T18:22:38.593Z,101307.13
2023-08-14T18:25:05.406Z,101304.66
2023-08-14T18:27:32.082Z,101304.47
2023-08-14T18:29:58.598Z,101310.19
2023-08-14T18:32:25.182Z,101312.03
2023-08-14T18:34:51.939Z,101310.84
2023-08-14T18:37:18.713Z,101308.47
2023-08-14T18:39:45.383Z,101316.66
2023-08-14T18:42:11.901Z,101312.41
2023-08-14T18:44:38.345Z,101312.53
2023-08-14T18:47:04.961Z,101313.78
2023-08-14T18:49:32.764Z,101320.72
2023-08-14T18:51:59.260Z,101315.03
2023-08-14T18:54:26.046Z,101326.66
2023-08-14T18:56:52.840Z,101329.50
2023-08-14T18:59:23.683Z,101321.19
2023-08-14T19:01:51.497Z,101327.25
2023-08-14T19:04:25.650Z,101324.31
2023-08-14T19:06:59.837Z,101328.03
2023-08-14T19:09:26.312Z,101327.44
2023-08-14T19:11:52.804Z,101338.25
2023-08-14T19:14:19.413Z,101331.13
2023-08-14T19:16:45.956Z,101342.41
2023-08-14T19:19:12.390Z,101341.66
2023-08-14T19:21:38.863Z,101345.44
2023-08-14T19:24:05.790Z,101349.66
2023-08-14T19:26:32.304Z,101346.00
2023-08-14T19:29:01.312Z,101352.09
2023-08-14T19:31:27.862Z,101355.09
2023-08-14T19:33:59.367Z,101352.13
2023-08-14T19:36:26.329Z,101351.69
2023-08-14T19:38:52.751Z,101347.66
2023-08-14T19:41:19.161Z,101356.16
2023-08-14T19:43:45.665Z,101353.06
2023-08-14T19:46:12.143Z,101355.13
2023-08-14T19:48:38.580Z,101356.56
2023-08-14T19:51:05.198Z,101358.25
2023-08-14T19:53:31.745Z,101350.28
2023-08-14T19:55:58.320Z,101349.06
2023-08-14T19:58:24.792Z,101350.38
2023-08-14T20:00:51.306Z,101355.16
2023-08-14T20:03:17.837Z,101349.66
2023-08-14T20:05:48.896Z,101344.19
2023-08-14T20:08:15.803Z,101342.78
2023-08-14T20:10:42.848Z,101344.06
2023-08-14T20:13:09.484Z,101343.69
2023-08-14T20:15:42.437Z,101345.84
2023-08-14T20:18:08.938Z,101345.59
2023-08-14T20:20:39.136Z,101338.22
2023-08-14T20:23:05.591Z,101343.06
2023-08-14T20:25:32.102Z,101338.16
2023-08-14T20:27:58.772Z,101337.75
2023-08-14T20:30:25.303Z,101340.84
2023-08-14T20:32:51.820Z,101344.88
2023-08-14T20:35:18.482Z,101334.75
2023-08-14T20:37:45.019Z,101336.44
2023-08-14T20:40:11.977Z,101341.78
2023-08-14T20:42:38.756Z,101332.59
2023-08-14T20:45:05.828Z,101330.22
2023-08-14T20:47:32.270Z,101338.53
2023-08-14T20:49:58.942Z,101333.47
2023-08-14T20:52:25.463Z,101339.88
2023-08-14T20:54:52.480Z,101335.91
2023-08-14T20:57:19.695Z,101326.41
2023-08-14T20:59:46.349Z,101331.03
2023-08-14T21:02:12.923Z,101322.66
2023-08-14T21:04:39.388Z,101314.84
2023-08-14T21:07:06.154Z,101314.13
2023-08-14T21:09:32.649Z,101310.06
2023-08-14T21:11:59.900Z,101312.91
2023-08-14T21:14:26.421Z,101323.75
2023-08-14T21:16:52.945Z,101321.78
2023-08-14T21:19:19.460Z,101321.19
2023-08-14T21:21:46.900Z,101317.00
2023-08-14T21:24:13.656Z,101321.53
2023-08-14T21:26:40.228Z,101313.16
2023-08-14T21:29:06.760Z,101311.59
2023-08-14T21:31:34.333Z,101318.84
2023-08-14T21:34:01.113Z,101317.25
2023-08-14T21:36:27.644Z,101322.91
2023-08-14T21:38:54.105Z,101317.09
2023-08-14T21:41:20.603Z,101313.97
2023-08-14T21:43:47.153Z,101319.50
2023-08-14T21:46:13.743Z,101313.97
2023-08-14T21:48:40.273Z,101312.41
2023-08-14T21:51:06.845Z,101315.88
2023-08-14T21:53:33.236Z,101311.06
2023-08-14T21:55:59.684Z,101317.34
2023-08-14T21:58:26.121Z,101317.53
2023-08-14T22:00:52.675Z,101317.13
2023-08-14T22:03:19.234Z,101316.47
2023-08-14T22:05:45.750Z,101315.84
2023-08-14T22:08:12.307Z,101305.63
2023-08-14T22:10:38.796Z,101314.69
2023-08-14T22:13:05.300Z,101313.31
2023-08-14T22:15:44.548Z,101312.72
2023-08-14T22:18:13.670Z,101312.28
2023-08-14T22:20:40.910Z,101310.91
2023-08-14T22:23:07.401Z,101303.41
2023-08-14T22:25:33.898Z,101316.22
2023-08-14T22:28:00.412Z,101307.78
2023-08-14T22:30:26.898Z,101303.50
2023-08-14T22:32:53.343Z,101314.75
2023-08-14T22:35:19.813Z,101312.47
2023-08-14T22:37:46.243Z,101309.97
2023-08-14T22:40:12.675Z,101309.97
2023-08-14T22:42:39.169Z,101319.66
2023-08-14T22:45:06.503Z,101308.59
2023-08-14T22:47:32.998Z,101310.59
2023-08-14T22:49:59.524Z,101309.94
2023-08-14T22:52:26.949Z,101309.22
2023-08-14T22:54:53.341Z,101315.34
2023-08-14T22:57:20.051Z,101314.53
2023-08-14T22:59:46.740Z,101314.84
2023-08-14T23:02:13.648Z,101313.56
2023-08-14T23:04:40.099Z,101320.44
2023-08-14T23:07:06.642Z,101311.88
2023-08-14T23:09:33.147Z,101309.94
2023-08-14T23:12:01.773Z,101323.78
2023-08-14T23:14:28.262Z,101309.94
2023-08-14T23:16:54.769Z,101315.97
2023-08-14T23:19:21.552Z,101315.31
2023-08-14T23:21:48.074Z,101311.97
2023-08-14T23:24:14.812Z,101311.88
2023-08-14T23:26:41.262Z,101308.56
2023-08-14T23:29:07.796Z,101327.59
2023-08-14T23:31:34.346Z,101332.13
2023-08-14T23:34:00.960Z,101341.03
2023-08-14T23:36:27.376Z,101333.13
2023-08-14T23:38:53.946Z,101328.66
2023-08-14T23:41:20.377Z,101324.94
2023-08-14T23:43:46.814Z,101314.53
2023-08-14T23:46:13.663Z,101313.41
2023-08-14T23:48:40.149Z,101310.81
2023-08-14T23:51:06.678Z,101297.78
2023-08-14T23:53:33.150Z,101302.06
2023-08-14T23:55:59.670Z,101295.06
2023-08-14T23:58:26.134Z,101289.75
